sensor_id;sensor_type;location;lat;lon;timestamp;P1;durP1;ratioP1;P2;durP2;ratioP2
67352;SDS011;54238;52.278;21.056;2023-04-24T00:00:09;16.10;;;9.10;;
67352;SDS011;54238;52.278;21.056;2023-04-24T00:03:00;17.50;;;8.00;;
67352;SDS011;54238;52.278;21.056;2023-04-24T00:05:31;17.20;;;8.60;;
67352;SDS011;54238;52.278;21.056;2023-04-24T00:08:03;14.50;;;9.10;;
67352;SDS011;54238;52.278;21.056;2023-04-24T00:10:30;19.00;;;9.00;;
67352;SDS011;54238;52.278;21.056;2023-04-24T00:13:00;16.00;;;8.70;;
67352;SDS011;54238;52.278;21.056;2023-04-24T00:15:39;19.70;;;9.40;;
67352;SDS011;54238;52.278;21.056;2023-04-24T00:18:10;18.50;;;8.80;;
67352;SDS011;54238;52.278;21.056;2023-04-24T00:23:41;15.50;;;8.70;;
67352;SDS011;54238;52.278;21.056;2023-04-24T00:26:11;14.90;;;8.20;;
67352;SDS011;54238;52.278;21.056;2023-04-24T00:28:40;12.60;;;8.10;;
67352;SDS011;54238;52.278;21.056;2023-04-24T00:31:19;18.20;;;8.70;;
67352;SDS011;54238;52.278;21.056;2023-04-24T00:33:49;14.10;;;8.00;;
67352;SDS011;54238;52.278;21.056;2023-04-24T00:36:20;15.00;;;8.40;;
67352;SDS011;54238;52.278;21.056;2023-04-24T00:38:47;10.90;;;8.10;;
67352;SDS011;54238;52.278;21.056;2023-04-24T00:41:31;14.00;;;9.10;;
67352;SDS011;54238;52.278;21.056;2023-04-24T00:43:58;11.60;;;8.30;;
67352;SDS011;54238;52.278;21.056;2023-04-24T00:49:21;19.10;;;8.40;;
67352;SDS011;54238;52.278;21.056;2023-04-24T00:51:51;13.00;;;8.80;;
67352;SDS011;54238;52.278;21.056;2023-04-24T00:54:18;10.60;;;8.50;;
67352;SDS011;54238;52.278;21.056;2023-04-24T00:56:48;12.60;;;8.40;;
67352;SDS011;54238;52.278;21.056;2023-04-24T00:59:18;11.50;;;8.00;;
67352;SDS011;54238;52.278;21.056;2023-04-24T01:01:51;15.10;;;8.90;;
67352;SDS011;54238;52.278;21.056;2023-04-24T01:04:20;11.70;;;7.60;;
67352;SDS011;54238;52.278;21.056;2023-04-24T01:06:48;17.70;;;9.00;;
67352;SDS011;54238;52.278;21.056;2023-04-24T01:09:20;14.70;;;8.50;;
67352;SDS011;54238;52.278;21.056;2023-04-24T01:11:50;17.00;;;8.70;;
67352;SDS011;54238;52.278;21.056;2023-04-24T01:14:20;15.70;;;9.10;;
67352;SDS011;54238;52.278;21.056;2023-04-24T01:16:49;13.10;;;7.90;;
67352;SDS011;54238;52.278;21.056;2023-04-24T01:19:21;13.80;;;8.50;;
67352;SDS011;54238;52.278;21.056;2023-04-24T01:21:53;13.00;;;8.30;;
67352;SDS011;54238;52.278;21.056;2023-04-24T01:24:28;18.30;;;9.00;;
67352;SDS011;54238;52.278;21.056;2023-04-24T01:26:57;17.80;;;8.90;;
67352;SDS011;54238;52.278;21.056;2023-04-24T01:29:25;24.60;;;9.20;;
67352;SDS011;54238;52.278;21.056;2023-04-24T01:31:52;14.20;;;8.70;;
67352;SDS011;54238;52.278;21.056;2023-04-24T01:34:20;20.20;;;9.80;;
67352;SDS011;54238;52.278;21.056;2023-04-24T01:36:47;16.80;;;10.00;;
67352;SDS011;54238;52.278;21.056;2023-04-24T01:39:18;19.70;;;9.60;;
67352;SDS011;54238;52.278;21.056;2023-04-24T01:41:49;20.60;;;10.30;;
67352;SDS011;54238;52.278;21.056;2023-04-24T01:44:17;17.60;;;10.40;;
67352;SDS011;54238;52.278;21.056;2023-04-24T01:46:47;15.20;;;8.60;;
67352;SDS011;54238;52.278;21.056;2023-04-24T01:49:17;14.50;;;9.20;;
67352;SDS011;54238;52.278;21.056;2023-04-24T01:51:49;20.70;;;9.70;;
67352;SDS011;54238;52.278;21.056;2023-04-24T01:54:16;14.10;;;8.30;;
67352;SDS011;54238;52.278;21.056;2023-04-24T01:56:43;18.70;;;9.80;;
67352;SDS011;54238;52.278;21.056;2023-04-24T01:59:13;16.40;;;8.70;;
67352;SDS011;54238;52.278;21.056;2023-04-24T02:01:44;19.10;;;9.20;;
67352;SDS011;54238;52.278;21.056;2023-04-24T02:04:18;14.10;;;9.40;;
67352;SDS011;54238;52.278;21.056;2023-04-24T02:06:48;15.00;;;8.90;;
67352;SDS011;54238;52.278;21.056;2023-04-24T02:09:15;14.00;;;9.00;;
67352;SDS011;54238;52.278;21.056;2023-04-24T02:11:45;13.00;;;8.80;;
67352;SDS011;54238;52.278;21.056;2023-04-24T02:14:34;14.40;;;10.00;;
67352;SDS011;54238;52.278;21.056;2023-04-24T02:17:12;12.10;;;8.40;;
67352;SDS011;54238;52.278;21.056;2023-04-24T02:19:43;17.10;;;9.10;;
67352;SDS011;54238;52.278;21.056;2023-04-24T02:22:10;17.30;;;9.80;;
67352;SDS011;54238;52.278;21.056;2023-04-24T02:24:42;16.80;;;9.00;;
67352;SDS011;54238;52.278;21.056;2023-04-24T02:27:11;18.90;;;8.50;;
67352;SDS011;54238;52.278;21.056;2023-04-24T02:29:41;14.90;;;9.90;;
67352;SDS011;54238;52.278;21.056;2023-04-24T02:32:15;18.40;;;9.50;;
67352;SDS011;54238;52.278;21.056;2023-04-24T02:35:00;12.90;;;9.00;;
67352;SDS011;54238;52.278;21.056;2023-04-24T02:37:27;14.60;;;9.60;;
67352;SDS011;54238;52.278;21.056;2023-04-24T02:39:57;13.40;;;9.30;;
67352;SDS011;54238;52.278;21.056;2023-04-24T02:42:24;15.70;;;9.10;;
67352;SDS011;54238;52.278;21.056;2023-04-24T02:44:56;20.10;;;9.00;;
67352;SDS011;54238;52.278;21.056;2023-04-24T02:47:25;18.90;;;10.50;;
67352;SDS011;54238;52.278;21.056;2023-04-24T02:49:59;17.10;;;9.00;;
67352;SDS011;54238;52.278;21.056;2023-04-24T02:52:26;13.70;;;9.70;;
67352;SDS011;54238;52.278;21.056;2023-04-24T02:54:55;15.40;;;9.00;;
67352;SDS011;54238;52.278;21.056;2023-04-24T02:57:25;22.50;;;11.00;;
67352;SDS011;54238;52.278;21.056;2023-04-24T02:59:52;15.70;;;9.20;;
67352;SDS011;54238;52.278;21.056;2023-04-24T03:02:19;16.60;;;9.50;;
67352;SDS011;54238;52.278;21.056;2023-04-24T03:04:53;17.20;;;10.00;;
67352;SDS011;54238;52.278;21.056;2023-04-24T03:07:21;16.40;;;11.00;;
67352;SDS011;54238;52.278;21.056;2023-04-24T03:09:51;14.00;;;9.90;;
67352;SDS011;54238;52.278;21.056;2023-04-24T03:12:18;14.20;;;9.90;;
67352;SDS011;54238;52.278;21.056;2023-04-24T03:14:50;14.90;;;9.60;;
67352;SDS011;54238;52.278;21.056;2023-04-24T03:17:22;20.10;;;10.20;;
67352;SDS011;54238;52.278;21.056;2023-04-24T03:19:51;16.00;;;10.00;;
67352;SDS011;54238;52.278;21.056;2023-04-24T03:22:21;16.60;;;9.90;;
67352;SDS011;54238;52.278;21.056;2023-04-24T03:24:50;17.40;;;9.80;;
67352;SDS011;54238;52.278;21.056;2023-04-24T03:27:22;18.30;;;10.00;;
67352;SDS011;54238;52.278;21.056;2023-04-24T03:29:49;18.80;;;9.40;;
67352;SDS011;54238;52.278;21.056;2023-04-24T03:32:24;24.30;;;11.00;;
67352;SDS011;54238;52.278;21.056;2023-04-24T03:34:54;14.90;;;9.90;;
67352;SDS011;54238;52.278;21.056;2023-04-24T03:37:21;14.30;;;9.60;;
67352;SDS011;54238;52.278;21.056;2023-04-24T03:39:48;16.70;;;9.90;;
67352;SDS011;54238;52.278;21.056;2023-04-24T03:42:16;19.20;;;10.00;;
67352;SDS011;54238;52.278;21.056;2023-04-24T03:44:45;20.80;;;9.40;;
67352;SDS011;54238;52.278;21.056;2023-04-24T03:47:15;17.30;;;9.50;;
67352;SDS011;54238;52.278;21.056;2023-04-24T03:49:45;24.80;;;10.10;;
67352;SDS011;54238;52.278;21.056;2023-04-24T03:52:12;16.00;;;10.70;;
67352;SDS011;54238;52.278;21.056;2023-04-24T03:54:39;19.70;;;10.40;;
67352;SDS011;54238;52.278;21.056;2023-04-24T03:57:06;14.80;;;9.00;;
67352;SDS011;54238;52.278;21.056;2023-04-24T03:59:38;15.90;;;9.00;;
67352;SDS011;54238;52.278;21.056;2023-04-24T04:02:08;18.90;;;11.30;;
67352;SDS011;54238;52.278;21.056;2023-04-24T04:04:35;22.10;;;10.10;;
67352;SDS011;54238;52.278;21.056;2023-04-24T04:07:04;16.70;;;9.40;;
67352;SDS011;54238;52.278;21.056;2023-04-24T04:09:35;18.40;;;9.70;;
67352;SDS011;54238;52.278;21.056;2023-04-24T04:12:06;16.80;;;9.20;;
67352;SDS011;54238;52.278;21.056;2023-04-24T04:14:38;14.10;;;10.00;;
67352;SDS011;54238;52.278;21.056;2023-04-24T04:17:08;16.50;;;9.00;;
67352;SDS011;54238;52.278;21.056;2023-04-24T04:19:37;18.50;;;10.00;;
67352;SDS011;54238;52.278;21.056;2023-04-24T04:22:05;24.90;;;10.00;;
67352;SDS011;54238;52.278;21.056;2023-04-24T04:24:31;25.40;;;10.60;;
67352;SDS011;54238;52.278;21.056;2023-04-24T04:27:01;20.80;;;9.50;;
67352;SDS011;54238;52.278;21.056;2023-04-24T04:29:31;27.60;;;9.40;;
67352;SDS011;54238;52.278;21.056;2023-04-24T04:31:59;23.50;;;10.40;;
67352;SDS011;54238;52.278;21.056;2023-04-24T04:34:34;17.70;;;8.60;;
67352;SDS011;54238;52.278;21.056;2023-04-24T04:37:06;18.30;;;9.00;;
67352;SDS011;54238;52.278;21.056;2023-04-24T04:39:35;16.90;;;9.90;;
67352;SDS011;54238;52.278;21.056;2023-04-24T04:42:09;15.00;;;8.60;;
67352;SDS011;54238;52.278;21.056;2023-04-24T04:44:37;14.50;;;9.50;;
67352;SDS011;54238;52.278;21.056;2023-04-24T04:47:05;20.10;;;9.90;;
67352;SDS011;54238;52.278;21.056;2023-04-24T04:49:32;24.10;;;10.50;;
67352;SDS011;54238;52.278;21.056;2023-04-24T04:51:59;18.20;;;10.00;;
67352;SDS011;54238;52.278;21.056;2023-04-24T04:57:08;21.10;;;11.50;;
67352;SDS011;54238;52.278;21.056;2023-04-24T04:59:35;15.40;;;9.70;;
67352;SDS011;54238;52.278;21.056;2023-04-24T05:02:06;18.90;;;10.40;;
67352;SDS011;54238;52.278;21.056;2023-04-24T05:04:36;17.00;;;9.70;;
67352;SDS011;54238;52.278;21.056;2023-04-24T05:07:03;24.10;;;10.90;;
67352;SDS011;54238;52.278;21.056;2023-04-24T05:09:32;18.10;;;9.60;;
67352;SDS011;54238;52.278;21.056;2023-04-24T05:12:00;21.50;;;10.00;;
67352;SDS011;54238;52.278;21.056;2023-04-24T05:14:32;21.00;;;9.80;;
67352;SDS011;54238;52.278;21.056;2023-04-24T05:17:02;23.10;;;11.20;;
67352;SDS011;54238;52.278;21.056;2023-04-24T05:19:29;26.30;;;9.80;;
67352;SDS011;54238;52.278;21.056;2023-04-24T05:22:00;16.70;;;9.20;;
67352;SDS011;54238;52.278;21.056;2023-04-24T05:24:33;24.50;;;9.60;;
67352;SDS011;54238;52.278;21.056;2023-04-24T05:27:03;18.30;;;10.00;;
67352;SDS011;54238;52.278;21.056;2023-04-24T05:29:33;20.90;;;10.50;;
67352;SDS011;54238;52.278;21.056;2023-04-24T05:32:00;16.50;;;10.70;;
67352;SDS011;54238;52.278;21.056;2023-04-24T05:34:30;22.30;;;10.50;;
67352;SDS011;54238;52.278;21.056;2023-04-24T05:36:58;16.60;;;9.30;;
67352;SDS011;54238;52.278;21.056;2023-04-24T05:39:25;14.30;;;9.20;;
67352;SDS011;54238;52.278;21.056;2023-04-24T05:41:54;19.50;;;9.00;;
67352;SDS011;54238;52.278;21.056;2023-04-24T05:44:27;17.90;;;9.50;;
67352;SDS011;54238;52.278;21.056;2023-04-24T05:46:59;14.20;;;8.90;;
67352;SDS011;54238;52.278;21.056;2023-04-24T05:49:26;18.60;;;10.60;;
67352;SDS011;54238;52.278;21.056;2023-04-24T05:51:57;17.60;;;8.80;;
67352;SDS011;54238;52.278;21.056;2023-04-24T05:54:29;18.10;;;11.00;;
67352;SDS011;54238;52.278;21.056;2023-04-24T05:56:56;19.20;;;10.50;;
67352;SDS011;54238;52.278;21.056;2023-04-24T05:59:23;19.80;;;10.90;;
67352;SDS011;54238;52.278;21.056;2023-04-24T06:01:53;19.30;;;10.00;;
67352;SDS011;54238;52.278;21.056;2023-04-24T06:04:20;22.30;;;10.00;;
67352;SDS011;54238;52.278;21.056;2023-04-24T06:06:52;20.10;;;10.60;;
67352;SDS011;54238;52.278;21.056;2023-04-24T06:09:24;23.20;;;11.20;;
67352;SDS011;54238;52.278;21.056;2023-04-24T06:11:52;19.10;;;10.80;;
67352;SDS011;54238;52.278;21.056;2023-04-24T06:14:20;16.50;;;10.00;;
67352;SDS011;54238;52.278;21.056;2023-04-24T06:16:49;16.40;;;9.60;;
67352;SDS011;54238;52.278;21.056;2023-04-24T06:19:16;21.50;;;9.40;;
67352;SDS011;54238;52.278;21.056;2023-04-24T06:21:48;18.10;;;9.30;;
67352;SDS011;54238;52.278;21.056;2023-04-24T06:24:15;19.00;;;10.40;;
67352;SDS011;54238;52.278;21.056;2023-04-24T06:29:27;16.60;;;9.60;;
67352;SDS011;54238;52.278;21.056;2023-04-24T06:31:56;18.50;;;9.90;;
67352;SDS011;54238;52.278;21.056;2023-04-24T06:34:28;23.20;;;11.60;;
67352;SDS011;54238;52.278;21.056;2023-04-24T06:37:02;28.60;;;16.50;;
67352;SDS011;54238;52.278;21.056;2023-04-24T06:39:33;24.20;;;11.10;;
67352;SDS011;54238;52.278;21.056;2023-04-24T06:42:03;23.30;;;10.30;;
67352;SDS011;54238;52.278;21.056;2023-04-24T06:44:38;21.20;;;10.40;;
67352;SDS011;54238;52.278;21.056;2023-04-24T06:47:10;15.30;;;9.90;;
67352;SDS011;54238;52.278;21.056;2023-04-24T06:49:42;20.70;;;9.60;;
67352;SDS011;54238;52.278;21.056;2023-04-24T06:52:09;21.30;;;10.80;;
67352;SDS011;54238;52.278;21.056;2023-04-24T06:54:36;19.00;;;9.00;;
67352;SDS011;54238;52.278;21.056;2023-04-24T06:57:08;22.60;;;10.60;;
67352;SDS011;54238;52.278;21.056;2023-04-24T06:59:37;20.50;;;10.40;;
67352;SDS011;54238;52.278;21.056;2023-04-24T07:02:04;18.00;;;10.50;;
67352;SDS011;54238;52.278;21.056;2023-04-24T07:04:34;17.80;;;9.90;;
67352;SDS011;54238;52.278;21.056;2023-04-24T07:07:02;13.80;;;8.90;;
67352;SDS011;54238;52.278;21.056;2023-04-24T07:09:31;25.80;;;8.50;;
67352;SDS011;54238;52.278;21.056;2023-04-24T07:11:59;25.80;;;8.80;;
67352;SDS011;54238;52.278;21.056;2023-04-24T07:14:32;15.00;;;9.00;;
67352;SDS011;54238;52.278;21.056;2023-04-24T07:17:09;24.60;;;10.30;;
67352;SDS011;54238;52.278;21.056;2023-04-24T07:19:36;18.50;;;8.80;;
67352;SDS011;54238;52.278;21.056;2023-04-24T07:22:03;25.80;;;9.50;;
67352;SDS011;54238;52.278;21.056;2023-04-24T07:24:33;19.70;;;9.70;;
67352;SDS011;54238;52.278;21.056;2023-04-24T07:27:00;20.10;;;9.40;;
67352;SDS011;54238;52.278;21.056;2023-04-24T07:29:30;21.80;;;9.90;;
67352;SDS011;54238;52.278;21.056;2023-04-24T07:31:59;17.60;;;9.40;;
67352;SDS011;54238;52.278;21.056;2023-04-24T07:34:26;19.30;;;8.90;;
67352;SDS011;54238;52.278;21.056;2023-04-24T07:36:57;14.90;;;9.10;;
67352;SDS011;54238;52.278;21.056;2023-04-24T07:39:24;19.90;;;9.20;;
67352;SDS011;54238;52.278;21.056;2023-04-24T07:41:56;24.30;;;9.90;;
67352;SDS011;54238;52.278;21.056;2023-04-24T07:44:30;25.30;;;9.90;;
67352;SDS011;54238;52.278;21.056;2023-04-24T07:47:02;18.80;;;9.20;;
67352;SDS011;54238;52.278;21.056;2023-04-24T07:49:31;23.00;;;9.50;;
67352;SDS011;54238;52.278;21.056;2023-04-24T07:52:03;23.40;;;9.00;;
67352;SDS011;54238;52.278;21.056;2023-04-24T07:54:30;24.60;;;9.20;;
67352;SDS011;54238;52.278;21.056;2023-04-24T07:56:57;18.50;;;9.50;;
67352;SDS011;54238;52.278;21.056;2023-04-24T07:59:29;22.70;;;9.00;;
67352;SDS011;54238;52.278;21.056;2023-04-24T08:01:56;16.40;;;8.90;;
67352;SDS011;54238;52.278;21.056;2023-04-24T08:04:23;25.30;;;8.80;;
67352;SDS011;54238;52.278;21.056;2023-04-24T08:07:02;19.00;;;9.50;;
67352;SDS011;54238;52.278;21.056;2023-04-24T08:09:36;22.10;;;9.90;;
67352;SDS011;54238;52.278;21.056;2023-04-24T08:12:06;19.90;;;8.00;;
67352;SDS011;54238;52.278;21.056;2023-04-24T08:14:37;13.70;;;8.50;;
67352;SDS011;54238;52.278;21.056;2023-04-24T08:17:04;19.70;;;8.70;;
67352;SDS011;54238;52.278;21.056;2023-04-24T08:19:36;23.50;;;8.10;;
67352;SDS011;54238;52.278;21.056;2023-04-24T08:22:06;23.20;;;9.20;;
67352;SDS011;54238;52.278;21.056;2023-04-24T08:24:36;15.10;;;8.10;;
67352;SDS011;54238;52.278;21.056;2023-04-24T08:27:06;12.20;;;7.80;;
67352;SDS011;54238;52.278;21.056;2023-04-24T08:29:38;14.70;;;7.70;;
67352;SDS011;54238;52.278;21.056;2023-04-24T08:32:10;14.30;;;7.80;;
67352;SDS011;54238;52.278;21.056;2023-04-24T08:34:40;20.70;;;7.90;;
67352;SDS011;54238;52.278;21.056;2023-04-24T08:37:08;14.10;;;8.10;;
67352;SDS011;54238;52.278;21.056;2023-04-24T08:39:40;17.90;;;7.90;;
67352;SDS011;54238;52.278;21.056;2023-04-24T08:42:10;21.50;;;7.40;;
67352;SDS011;54238;52.278;21.056;2023-04-24T08:44:43;17.80;;;8.90;;
67352;SDS011;54238;52.278;21.056;2023-04-24T08:47:14;16.70;;;8.10;;
67352;SDS011;54238;52.278;21.056;2023-04-24T08:49:44;19.80;;;9.30;;
67352;SDS011;54238;52.278;21.056;2023-04-24T08:52:20;19.50;;;9.00;;
67352;SDS011;54238;52.278;21.056;2023-04-24T08:54:49;20.60;;;8.80;;
67352;SDS011;54238;52.278;21.056;2023-04-24T08:57:19;17.70;;;8.50;;
67352;SDS011;54238;52.278;21.056;2023-04-24T08:59:51;17.60;;;8.50;;
67352;SDS011;54238;52.278;21.056;2023-04-24T09:02:23;17.60;;;8.40;;
67352;SDS011;54238;52.278;21.056;2023-04-24T09:04:52;13.60;;;7.70;;
67352;SDS011;54238;52.278;21.056;2023-04-24T09:07:27;13.40;;;7.70;;
67352;SDS011;54238;52.278;21.056;2023-04-24T09:09:58;16.40;;;7.30;;
67352;SDS011;54238;52.278;21.056;2023-04-24T09:12:29;15.40;;;8.20;;
67352;SDS011;54238;52.278;21.056;2023-04-24T09:14:58;15.30;;;8.40;;
67352;SDS011;54238;52.278;21.056;2023-04-24T09:17:30;10.30;;;7.90;;
67352;SDS011;54238;52.278;21.056;2023-04-24T09:20:02;14.40;;;7.20;;
67352;SDS011;54238;52.278;21.056;2023-04-24T09:22:31;12.50;;;7.30;;
67352;SDS011;54238;52.278;21.056;2023-04-24T09:25:07;15.70;;;7.60;;
67352;SDS011;54238;52.278;21.056;2023-04-24T09:27:43;12.50;;;7.60;;
67352;SDS011;54238;52.278;21.056;2023-04-24T09:30:12;13.00;;;7.10;;
67352;SDS011;54238;52.278;21.056;2023-04-24T09:32:43;16.80;;;7.30;;
67352;SDS011;54238;52.278;21.056;2023-04-24T09:35:16;13.70;;;7.10;;
67352;SDS011;54238;52.278;21.056;2023-04-24T09:37:46;13.70;;;7.30;;
67352;SDS011;54238;52.278;21.056;2023-04-24T09:45:27;10.70;;;5.90;;
67352;SDS011;54238;52.278;21.056;2023-04-24T09:47:57;10.70;;;6.20;;
67352;SDS011;54238;52.278;21.056;2023-04-24T09:50:24;14.10;;;6.10;;
67352;SDS011;54238;52.278;21.056;2023-04-24T09:52:58;9.20;;;5.90;;
67352;SDS011;54238;52.278;21.056;2023-04-24T09:55:29;11.60;;;6.00;;
67352;SDS011;54238;52.278;21.056;2023-04-24T09:58:01;14.10;;;6.00;;
67352;SDS011;54238;52.278;21.056;2023-04-24T10:02:01;7.50;;;4.90;;
67352;SDS011;54238;52.278;21.056;2023-04-24T10:04:32;9.30;;;5.00;;
67352;SDS011;54238;52.278;21.056;2023-04-24T10:07:03;7.50;;;5.00;;
67352;SDS011;54238;52.278;21.056;2023-04-24T10:09:34;7.10;;;4.90;;
67352;SDS011;54238;52.278;21.056;2023-04-24T10:12:04;8.80;;;4.80;;
67352;SDS011;54238;52.278;21.056;2023-04-24T10:14:34;8.60;;;4.50;;
67352;SDS011;54238;52.278;21.056;2023-04-24T10:17:02;7.40;;;4.40;;
67352;SDS011;54238;52.278;21.056;2023-04-24T10:19:42;9.80;;;5.00;;
67352;SDS011;54238;52.278;21.056;2023-04-24T10:22:10;9.90;;;5.00;;
67352;SDS011;54238;52.278;21.056;2023-04-24T10:24:40;7.60;;;5.00;;
67352;SDS011;54238;52.278;21.056;2023-04-24T10:27:10;11.10;;;5.20;;
67352;SDS011;54238;52.278;21.056;2023-04-24T10:29:43;9.30;;;5.10;;
67352;SDS011;54238;52.278;21.056;2023-04-24T10:32:16;6.70;;;5.20;;
67352;SDS011;54238;52.278;21.056;2023-04-24T10:34:46;7.60;;;5.60;;
67352;SDS011;54238;52.278;21.056;2023-04-24T10:37:18;9.50;;;5.10;;
67352;SDS011;54238;52.278;21.056;2023-04-24T10:40:09;8.20;;;5.30;;
67352;SDS011;54238;52.278;21.056;2023-04-24T10:42:40;9.30;;;5.40;;
67352;SDS011;54238;52.278;21.056;2023-04-24T10:45:17;9.90;;;5.80;;
67352;SDS011;54238;52.278;21.056;2023-04-24T10:47:57;12.10;;;5.90;;
67352;SDS011;54238;52.278;21.056;2023-04-24T10:50:27;11.70;;;5.30;;
67352;SDS011;54238;52.278;21.056;2023-04-24T10:53:20;9.90;;;6.40;;
67352;SDS011;54238;52.278;21.056;2023-04-24T11:01:37;10.00;;;5.50;;
67352;SDS011;54238;52.278;21.056;2023-04-24T11:04:07;6.80;;;5.10;;
67352;SDS011;54238;52.278;21.056;2023-04-24T11:06:37;7.00;;;4.90;;
67352;SDS011;54238;52.278;21.056;2023-04-24T11:09:10;10.40;;;4.80;;
67352;SDS011;54238;52.278;21.056;2023-04-24T11:11:46;6.60;;;4.50;;
67352;SDS011;54238;52.278;21.056;2023-04-24T11:14:16;7.00;;;4.50;;
67352;SDS011;54238;52.278;21.056;2023-04-24T11:16:53;7.60;;;4.80;;
67352;SDS011;54238;52.278;21.056;2023-04-24T11:19:26;11.10;;;5.30;;
67352;SDS011;54238;52.278;21.056;2023-04-24T11:27:17;8.50;;;4.60;;
67352;SDS011;54238;52.278;21.056;2023-04-24T11:35:26;8.10;;;4.60;;
67352;SDS011;54238;52.278;21.056;2023-04-24T11:37:56;7.40;;;5.00;;
67352;SDS011;54238;52.278;21.056;2023-04-24T11:40:29;8.30;;;5.00;;
67352;SDS011;54238;52.278;21.056;2023-04-24T11:42:59;8.50;;;5.20;;
67352;SDS011;54238;52.278;21.056;2023-04-24T11:45:30;6.50;;;5.00;;
67352;SDS011;54238;52.278;21.056;2023-04-24T11:51:05;6.40;;;4.80;;
67352;SDS011;54238;52.278;21.056;2023-04-24T11:53:32;8.50;;;4.80;;
67352;SDS011;54238;52.278;21.056;2023-04-24T11:56:05;7.30;;;4.80;;
67352;SDS011;54238;52.278;21.056;2023-04-24T11:58:36;8.60;;;5.20;;
67352;SDS011;54238;52.278;21.056;2023-04-24T12:01:07;5.80;;;4.40;;
67352;SDS011;54238;52.278;21.056;2023-04-24T12:03:37;7.00;;;4.90;;
67352;SDS011;54238;52.278;21.056;2023-04-24T12:06:10;4.80;;;4.30;;
67352;SDS011;54238;52.278;21.056;2023-04-24T12:08:40;9.30;;;4.30;;
67352;SDS011;54238;52.278;21.056;2023-04-24T12:11:09;7.30;;;4.80;;
67352;SDS011;54238;52.278;21.056;2023-04-24T12:13:40;7.50;;;3.90;;
67352;SDS011;54238;52.278;21.056;2023-04-24T12:16:07;9.40;;;4.70;;
67352;SDS011;54238;52.278;21.056;2023-04-24T12:18:41;5.10;;;3.80;;
67352;SDS011;54238;52.278;21.056;2023-04-24T12:21:22;7.00;;;4.00;;
67352;SDS011;54238;52.278;21.056;2023-04-24T12:23:56;6.60;;;4.00;;
67352;SDS011;54238;52.278;21.056;2023-04-24T12:26:27;13.60;;;4.40;;
67352;SDS011;54238;52.278;21.056;2023-04-24T12:28:54;13.70;;;4.40;;
67352;SDS011;54238;52.278;21.056;2023-04-24T12:31:26;6.60;;;4.10;;
67352;SDS011;54238;52.278;21.056;2023-04-24T12:33:56;8.90;;;4.20;;
67352;SDS011;54238;52.278;21.056;2023-04-24T12:36:23;6.00;;;4.00;;
67352;SDS011;54238;52.278;21.056;2023-04-24T12:38:55;14.50;;;4.50;;
67352;SDS011;54238;52.278;21.056;2023-04-24T12:41:22;12.60;;;4.90;;
67352;SDS011;54238;52.278;21.056;2023-04-24T12:43:53;6.10;;;4.60;;
67352;SDS011;54238;52.278;21.056;2023-04-24T12:46:26;10.10;;;4.70;;
67352;SDS011;54238;52.278;21.056;2023-04-24T12:48:53;6.30;;;4.60;;
67352;SDS011;54238;52.278;21.056;2023-04-24T12:51:20;8.00;;;5.00;;
67352;SDS011;54238;52.278;21.056;2023-04-24T12:53:47;7.50;;;4.60;;
67352;SDS011;54238;52.278;21.056;2023-04-24T12:56:16;7.50;;;4.30;;
67352;SDS011;54238;52.278;21.056;2023-04-24T12:58:46;43.50;;;5.60;;
67352;SDS011;54238;52.278;21.056;2023-04-24T13:01:16;31.90;;;4.80;;
67352;SDS011;54238;52.278;21.056;2023-04-24T13:03:43;29.30;;;4.50;;
67352;SDS011;54238;52.278;21.056;2023-04-24T13:06:12;17.80;;;4.10;;
67352;SDS011;54238;52.278;21.056;2023-04-24T13:08:44;24.90;;;4.50;;
67352;SDS011;54238;52.278;21.056;2023-04-24T13:11:11;10.90;;;3.50;;
67352;SDS011;54238;52.278;21.056;2023-04-24T13:13:38;27.80;;;3.80;;
67352;SDS011;54238;52.278;21.056;2023-04-24T13:16:06;11.40;;;3.40;;
67352;SDS011;54238;52.278;21.056;2023-04-24T13:18:36;7.70;;;3.20;;
67352;SDS011;54238;52.278;21.056;2023-04-24T13:21:03;11.00;;;3.40;;
67352;SDS011;54238;52.278;21.056;2023-04-24T13:23:38;23.40;;;3.70;;
67352;SDS011;54238;52.278;21.056;2023-04-24T13:26:08;13.40;;;3.60;;
67352;SDS011;54238;52.278;21.056;2023-04-24T13:28:36;13.40;;;4.20;;
67352;SDS011;54238;52.278;21.056;2023-04-24T13:31:04;9.80;;;3.50;;
67352;SDS011;54238;52.278;21.056;2023-04-24T13:34:07;8.50;;;3.70;;
67352;SDS011;54238;52.278;21.056;2023-04-24T13:36:39;7.80;;;3.30;;
67352;SDS011;54238;52.278;21.056;2023-04-24T13:39:13;13.10;;;3.20;;
67352;SDS011;54238;52.278;21.056;2023-04-24T13:41:59;6.30;;;2.90;;
67352;SDS011;54238;52.278;21.056;2023-04-24T13:44:31;5.10;;;3.10;;
67352;SDS011;54238;52.278;21.056;2023-04-24T13:47:00;8.20;;;3.80;;
67352;SDS011;54238;52.278;21.056;2023-04-24T13:49:30;19.20;;;5.50;;
67352;SDS011;54238;52.278;21.056;2023-04-24T13:52:01;14.90;;;4.00;;
67352;SDS011;54238;52.278;21.056;2023-04-24T13:54:34;11.40;;;4.30;;
67352;SDS011;54238;52.278;21.056;2023-04-24T13:57:03;8.50;;;3.60;;
67352;SDS011;54238;52.278;21.056;2023-04-24T13:59:35;8.70;;;3.90;;
67352;SDS011;54238;52.278;21.056;2023-04-24T14:02:05;7.70;;;3.90;;
67352;SDS011;54238;52.278;21.056;2023-04-24T14:04:34;6.80;;;2.90;;
67352;SDS011;54238;52.278;21.056;2023-04-24T14:07:05;6.60;;;3.40;;
67352;SDS011;54238;52.278;21.056;2023-04-24T14:09:34;4.60;;;2.90;;
67352;SDS011;54238;52.278;21.056;2023-04-24T14:12:05;3.60;;;2.80;;
67352;SDS011;54238;52.278;21.056;2023-04-24T14:14:32;4.60;;;3.10;;
67352;SDS011;54238;52.278;21.056;2023-04-24T14:17:02;6.90;;;3.50;;
67352;SDS011;54238;52.278;21.056;2023-04-24T14:19:29;9.50;;;3.70;;
67352;SDS011;54238;52.278;21.056;2023-04-24T14:21:56;6.80;;;3.40;;
67352;SDS011;54238;52.278;21.056;2023-04-24T14:24:24;4.90;;;3.40;;
67352;SDS011;54238;52.278;21.056;2023-04-24T14:26:54;8.00;;;3.40;;
67352;SDS011;54238;52.278;21.056;2023-04-24T14:29:28;6.10;;;3.70;;
67352;SDS011;54238;52.278;21.056;2023-04-24T14:32:00;7.00;;;3.60;;
67352;SDS011;54238;52.278;21.056;2023-04-24T14:34:27;7.50;;;3.30;;
67352;SDS011;54238;52.278;21.056;2023-04-24T14:36:54;5.50;;;3.30;;
67352;SDS011;54238;52.278;21.056;2023-04-24T14:39:24;8.80;;;3.40;;
67352;SDS011;54238;52.278;21.056;2023-04-24T14:41:57;5.90;;;3.50;;
67352;SDS011;54238;52.278;21.056;2023-04-24T14:44:24;8.80;;;3.50;;
67352;SDS011;54238;52.278;21.056;2023-04-24T14:46:53;4.40;;;3.50;;
67352;SDS011;54238;52.278;21.056;2023-04-24T14:49:23;5.60;;;3.40;;
67352;SDS011;54238;52.278;21.056;2023-04-24T14:51:50;5.40;;;3.10;;
67352;SDS011;54238;52.278;21.056;2023-04-24T14:54:20;8.20;;;4.20;;
67352;SDS011;54238;52.278;21.056;2023-04-24T14:56:54;7.80;;;3.40;;
67352;SDS011;54238;52.278;21.056;2023-04-24T14:59:29;8.30;;;3.50;;
67352;SDS011;54238;52.278;21.056;2023-04-24T15:02:00;8.20;;;3.70;;
67352;SDS011;54238;52.278;21.056;2023-04-24T15:04:29;4.10;;;3.60;;
67352;SDS011;54238;52.278;21.056;2023-04-24T15:07:00;6.80;;;3.70;;
67352;SDS011;54238;52.278;21.056;2023-04-24T15:09:30;4.20;;;3.80;;
67352;SDS011;54238;52.278;21.056;2023-04-24T15:12:01;6.40;;;3.50;;
67352;SDS011;54238;52.278;21.056;2023-04-24T15:14:31;4.80;;;3.70;;
67352;SDS011;54238;52.278;21.056;2023-04-24T15:17:00;8.90;;;4.00;;
67352;SDS011;54238;52.278;21.056;2023-04-24T15:19:27;8.40;;;4.20;;